sensor_id;sensor_type;location;lat;lon;timestamp;temperature;humidity
316;DHT22;14128;48.686;9.738;2022-11-15T00:01:07;10.10;1.40
316;DHT22;14128;48.686;9.738;2022-11-15T00:03:34;10.10;1.40
316;DHT22;14128;48.686;9.738;2022-11-15T00:06:04;10.10;1.40
316;DHT22;14128;48.686;9.738;2022-11-15T00:08:31;10.10;1.40
316;DHT22;14128;48.686;9.738;2022-11-15T00:10:59;10.10;1.40
316;DHT22;14128;48.686;9.738;2022-11-15T00:13:26;10.10;1.40
316;DHT22;14128;48.686;9.738;2022-11-15T00:15:56;10.10;1.40
316;DHT22;14128;48.686;9.738;2022-11-15T00:18:24;10.10;1.40
316;DHT22;14128;48.686;9.738;2022-11-15T00:20:50;10.10;1.40
316;DHT22;14128;48.686;9.738;2022-11-15T00:23:19;10.10;1.40
316;DHT22;14128;48.686;9.738;2022-11-15T00:25:45;10.10;1.40
316;DHT22;14128;48.686;9.738;2022-11-15T00:28:12;10.20;1.40
316;DHT22;14128;48.686;9.738;2022-11-15T00:30:39;10.20;1.40
316;DHT22;14128;48.686;9.738;2022-11-15T00:33:06;10.20;1.40
316;DHT22;14128;48.686;9.738;2022-11-15T00:35:34;10.20;1.40
316;DHT22;14128;48.686;9.738;2022-11-15T00:38:01;10.10;1.40
316;DHT22;14128;48.686;9.738;2022-11-15T00:40:30;10.10;1.40
316;DHT22;14128;48.686;9.738;2022-11-15T00:42:57;10.10;1.40
316;DHT22;14128;48.686;9.738;2022-11-15T00:45:24;10.10;1.40
316;DHT22;14128;48.686;9.738;2022-11-15T00:47:51;10.00;1.40
316;DHT22;14128;48.686;9.738;2022-11-15T00:50:18;10.00;1.40
316;DHT22;14128;48.686;9.738;2022-11-15T00:52:45;10.00;1.40
316;DHT22;14128;48.686;9.738;2022-11-15T00:55:14;9.90;1.40
316;DHT22;14128;48.686;9.738;2022-11-15T00:57:43;9.90;1.40
316;DHT22;14128;48.686;9.738;2022-11-15T01:00:10;9.80;1.40
316;DHT22;14128;48.686;9.738;2022-11-15T01:02:37;9.80;1.40
316;DHT22;14128;48.686;9.738;2022-11-15T01:05:05;9.70;1.40
316;DHT22;14128;48.686;9.738;2022-11-15T01:07:32;9.70;1.40
316;DHT22;14128;48.686;9.738;2022-11-15T01:09:59;9.70;1.40
316;DHT22;14128;48.686;9.738;2022-11-15T01:12:26;9.70;1.40
316;DHT22;14128;48.686;9.738;2022-11-15T01:14:54;9.60;1.40
316;DHT22;14128;48.686;9.738;2022-11-15T01:17:21;9.60;1.40
316;DHT22;14128;48.686;9.738;2022-11-15T01:19:47;9.50;1.40
316;DHT22;14128;48.686;9.738;2022-11-15T01:22:14;9.40;1.40
316;DHT22;14128;48.686;9.738;2022-11-15T01:24:41;9.30;1.40
316;DHT22;14128;48.686;9.738;2022-11-15T01:27:08;9.20;1.40
316;DHT22;14128;48.686;9.738;2022-11-15T01:29:35;9.10;1.40
316;DHT22;14128;48.686;9.738;2022-11-15T01:32:03;8.80;1.40
316;DHT22;14128;48.686;9.738;2022-11-15T01:34:30;8.70;1.40
316;DHT22;14128;48.686;9.738;2022-11-15T01:36:57;8.60;1.40
316;DHT22;14128;48.686;9.738;2022-11-15T01:39:24;8.50;1.40
316;DHT22;14128;48.686;9.738;2022-11-15T01:41:51;8.40;1.40
316;DHT22;14128;48.686;9.738;2022-11-15T01:44:40;8.30;1.40
316;DHT22;14128;48.686;9.738;2022-11-15T01:47:12;8.20;1.40
316;DHT22;14128;48.686;9.738;2022-11-15T01:49:46;8.10;1.40
316;DHT22;14128;48.686;9.738;2022-11-15T01:52:19;8.00;1.40
316;DHT22;14128;48.686;9.738;2022-11-15T01:54:46;8.00;1.40
316;DHT22;14128;48.686;9.738;2022-11-15T01:57:13;7.90;1.40
316;DHT22;14128;48.686;9.738;2022-11-15T01:59:43;7.80;1.40
316;DHT22;14128;48.686;9.738;2022-11-15T02:02:12;7.80;1.40
316;DHT22;14128;48.686;9.738;2022-11-15T02:04:41;7.70;1.40
316;DHT22;14128;48.686;9.738;2022-11-15T02:07:10;7.70;1.40
316;DHT22;14128;48.686;9.738;2022-11-15T02:09:38;7.70;1.40
316;DHT22;14128;48.686;9.738;2022-11-15T02:12:06;7.60;1.40
316;DHT22;14128;48.686;9.738;2022-11-15T02:14:34;7.60;1.40
316;DHT22;14128;48.686;9.738;2022-11-15T02:17:14;7.50;1.40
316;DHT22;14128;48.686;9.738;2022-11-15T02:23:08;7.40;1.40
316;DHT22;14128;48.686;9.738;2022-11-15T02:25:41;7.40;1.40
316;DHT22;14128;48.686;9.738;2022-11-15T02:28:33;7.40;1.40
316;DHT22;14128;48.686;9.738;2022-11-15T02:31:09;7.30;1.40
316;DHT22;14128;48.686;9.738;2022-11-15T02:33:44;7.30;1.40
316;DHT22;14128;48.686;9.738;2022-11-15T02:36:25;7.20;1.40
316;DHT22;14128;48.686;9.738;2022-11-15T02:38:57;7.20;1.40
316;DHT22;14128;48.686;9.738;2022-11-15T02:41:30;7.20;1.40
316;DHT22;14128;48.686;9.738;2022-11-15T02:44:02;7.20;1.40
316;DHT22;14128;48.686;9.738;2022-11-15T02:46:35;7.20;1.40
316;DHT22;14128;48.686;9.738;2022-11-15T02:49:22;7.20;1.40
316;DHT22;14128;48.686;9.738;2022-11-15T02:51:51;7.20;1.40
316;DHT22;14128;48.686;9.738;2022-11-15T02:54:21;7.20;1.40
316;DHT22;14128;48.686;9.738;2022-11-15T02:56:49;7.10;1.40
316;DHT22;14128;48.686;9.738;2022-11-15T02:59:38;7.10;1.40
316;DHT22;14128;48.686;9.738;2022-11-15T03:02:18;7.10;1.40
316;DHT22;14128;48.686;9.738;2022-11-15T03:04:53;7.00;1.40
316;DHT22;14128;48.686;9.738;2022-11-15T03:07:26;7.00;1.40
316;DHT22;14128;48.686;9.738;2022-11-15T03:10:02;7.00;1.40
316;DHT22;14128;48.686;9.738;2022-11-15T03:12:36;7.00;1.40
316;DHT22;14128;48.686;9.738;2022-11-15T03:15:07;7.10;1.40
316;DHT22;14128;48.686;9.738;2022-11-15T03:17:42;7.20;1.40
316;DHT22;14128;48.686;9.738;2022-11-15T03:20:15;7.30;1.40
316;DHT22;14128;48.686;9.738;2022-11-15T03:22:45;7.40;1.40
316;DHT22;14128;48.686;9.738;2022-11-15T03:25:16;7.50;1.40
316;DHT22;14128;48.686;9.738;2022-11-15T03:27:47;7.60;1.40
316;DHT22;14128;48.686;9.738;2022-11-15T03:30:17;7.80;1.40
316;DHT22;14128;48.686;9.738;2022-11-15T03:32:48;7.90;1.40
316;DHT22;14128;48.686;9.738;2022-11-15T03:35:18;8.00;1.40
316;DHT22;14128;48.686;9.738;2022-11-15T03:37:51;8.10;1.40
316;DHT22;14128;48.686;9.738;2022-11-15T03:40:22;8.10;1.40
316;DHT22;14128;48.686;9.738;2022-11-15T03:42:56;8.10;1.40
316;DHT22;14128;48.686;9.738;2022-11-15T03:45:29;8.20;1.40
316;DHT22;14128;48.686;9.738;2022-11-15T03:48:02;8.20;1.40
316;DHT22;14128;48.686;9.738;2022-11-15T03:50:32;8.10;1.40
316;DHT22;14128;48.686;9.738;2022-11-15T03:52:59;8.20;1.40
316;DHT22;14128;48.686;9.738;2022-11-15T03:55:26;8.10;1.40
316;DHT22;14128;48.686;9.738;2022-11-15T03:57:56;8.10;1.40
316;DHT22;14128;48.686;9.738;2022-11-15T04:00:24;8.10;1.40
316;DHT22;14128;48.686;9.738;2022-11-15T04:02:50;8.00;1.40
316;DHT22;14128;48.686;9.738;2022-11-15T04:05:18;7.90;1.40
316;DHT22;14128;48.686;9.738;2022-11-15T04:07:45;8.00;1.40
316;DHT22;14128;48.686;9.738;2022-11-15T04:10:13;8.00;1.40
316;DHT22;14128;48.686;9.738;2022-11-15T04:12:41;8.10;1.40
316;DHT22;14128;48.686;9.738;2022-11-15T04:15:11;8.20;1.40
316;DHT22;14128;48.686;9.738;2022-11-15T04:17:39;8.20;1.40
316;DHT22;14128;48.686;9.738;2022-11-15T04:20:09;8.20;1.40
316;DHT22;14128;48.686;9.738;2022-11-15T04:22:56;8.30;1.40
316;DHT22;14128;48.686;9.738;2022-11-15T04:25:41;8.30;1.40
316;DHT22;14128;48.686;9.738;2022-11-15T04:28:08;8.40;1.40
316;DHT22;14128;48.686;9.738;2022-11-15T04:30:35;8.40;1.40
316;DHT22;14128;48.686;9.738;2022-11-15T04:33:02;8.50;1.40
316;DHT22;14128;48.686;9.738;2022-11-15T04:35:29;8.50;1.40
316;DHT22;14128;48.686;9.738;2022-11-15T04:37:58;8.60;1.40
316;DHT22;14128;48.686;9.738;2022-11-15T04:40:24;8.60;1.40
316;DHT22;14128;48.686;9.738;2022-11-15T04:42:50;8.60;1.40
316;DHT22;14128;48.686;9.738;2022-11-15T04:45:17;8.60;1.40
316;DHT22;14128;48.686;9.738;2022-11-15T04:47:44;8.70;1.40
316;DHT22;14128;48.686;9.738;2022-11-15T04:50:11;8.60;1.40
316;DHT22;14128;48.686;9.738;2022-11-15T04:52:39;8.60;1.40
316;DHT22;14128;48.686;9.738;2022-11-15T04:55:08;8.60;1.40
316;DHT22;14128;48.686;9.738;2022-11-15T04:57:36;8.60;1.40
316;DHT22;14128;48.686;9.738;2022-11-15T05:00:04;8.70;1.40
316;DHT22;14128;48.686;9.738;2022-11-15T05:02:31;8.80;1.40
316;DHT22;14128;48.686;9.738;2022-11-15T05:05:12;8.80;1.40
316;DHT22;14128;48.686;9.738;2022-11-15T05:07:39;8.80;1.40
316;DHT22;14128;48.686;9.738;2022-11-15T05:10:07;8.80;1.40
316;DHT22;14128;48.686;9.738;2022-11-15T05:12:34;8.70;1.40
316;DHT22;14128;48.686;9.738;2022-11-15T05:15:02;8.70;1.40
316;DHT22;14128;48.686;9.738;2022-11-15T05:17:28;8.70;1.40
316;DHT22;14128;48.686;9.738;2022-11-15T05:19:55;8.70;1.40
316;DHT22;14128;48.686;9.738;2022-11-15T05:22:22;8.80;1.40
316;DHT22;14128;48.686;9.738;2022-11-15T05:24:49;8.80;1.40
316;DHT22;14128;48.686;9.738;2022-11-15T05:27:17;8.80;1.40
316;DHT22;14128;48.686;9.738;2022-11-15T05:29:44;8.70;1.40
316;DHT22;14128;48.686;9.738;2022-11-15T05:32:11;8.70;1.40
316;DHT22;14128;48.686;9.738;2022-11-15T05:34:38;8.70;1.40
316;DHT22;14128;48.686;9.738;2022-11-15T05:37:05;8.70;1.40
316;DHT22;14128;48.686;9.738;2022-11-15T05:39:32;8.60;1.40
316;DHT22;14128;48.686;9.738;2022-11-15T05:42:02;8.60;1.40
316;DHT22;14128;48.686;9.738;2022-11-15T05:44:34;8.50;1.40
316;DHT22;14128;48.686;9.738;2022-11-15T05:47:03;8.40;1.40
316;DHT22;14128;48.686;9.738;2022-11-15T05:49:34;8.30;1.40
316;DHT22;14128;48.686;9.738;2022-11-15T05:52:03;8.20;1.40
316;DHT22;14128;48.686;9.738;2022-11-15T05:54:32;8.00;1.40
316;DHT22;14128;48.686;9.738;2022-11-15T05:56:59;7.90;1.40
316;DHT22;14128;48.686;9.738;2022-11-15T05:59:28;7.70;1.40
316;DHT22;14128;48.686;9.738;2022-11-15T06:01:57;7.70;1.40
316;DHT22;14128;48.686;9.738;2022-11-15T06:04:24;7.50;1.40
316;DHT22;14128;48.686;9.738;2022-11-15T06:06:50;7.50;1.40
316;DHT22;14128;48.686;9.738;2022-11-15T06:09:17;7.30;1.40
316;DHT22;14128;48.686;9.738;2022-11-15T06:11:44;7.30;1.40
316;DHT22;14128;48.686;9.738;2022-11-15T06:14:11;7.20;1.40
316;DHT22;14128;48.686;9.738;2022-11-15T06:16:38;7.20;1.40
316;DHT22;14128;48.686;9.738;2022-11-15T06:19:07;7.20;1.40
316;DHT22;14128;48.686;9.738;2022-11-15T06:21:34;7.10;1.40
316;DHT22;14128;48.686;9.738;2022-11-15T06:24:00;7.10;1.40
316;DHT22;14128;48.686;9.738;2022-11-15T06:26:27;7.00;1.40
316;DHT22;14128;48.686;9.738;2022-11-15T06:28:55;7.00;1.40
316;DHT22;14128;48.686;9.738;2022-11-15T06:31:22;7.00;1.40
316;DHT22;14128;48.686;9.738;2022-11-15T06:33:49;6.90;1.40
316;DHT22;14128;48.686;9.738;2022-11-15T06:36:17;6.90;1.40
316;DHT22;14128;48.686;9.738;2022-11-15T06:38:44;6.90;1.40
316;DHT22;14128;48.686;9.738;2022-11-15T06:41:12;6.90;1.40
316;DHT22;14128;48.686;9.738;2022-11-15T06:43:40;6.80;1.40
316;DHT22;14128;48.686;9.738;2022-11-15T06:46:07;6.80;1.40
316;DHT22;14128;48.686;9.738;2022-11-15T06:48:34;6.80;1.40
316;DHT22;14128;48.686;9.738;2022-11-15T06:51:03;6.80;1.40
316;DHT22;14128;48.686;9.738;2022-11-15T06:53:32;6.80;1.40
316;DHT22;14128;48.686;9.738;2022-11-15T06:55:59;6.80;1.40
316;DHT22;14128;48.686;9.738;2022-11-15T06:58:27;6.90;1.40
316;DHT22;14128;48.686;9.738;2022-11-15T07:00:57;6.90;1.40
316;DHT22;14128;48.686;9.738;2022-11-15T07:03:24;6.90;1.40
316;DHT22;14128;48.686;9.738;2022-11-15T07:05:52;6.90;1.40
316;DHT22;14128;48.686;9.738;2022-11-15T07:08:20;7.10;1.40
316;DHT22;14128;48.686;9.738;2022-11-15T07:10:48;7.10;1.40
316;DHT22;14128;48.686;9.738;2022-11-15T07:13:15;7.10;1.40
316;DHT22;14128;48.686;9.738;2022-11-15T07:15:42;7.10;1.40
316;DHT22;14128;48.686;9.738;2022-11-15T07:18:09;7.20;1.40
316;DHT22;14128;48.686;9.738;2022-11-15T07:20:36;7.20;1.40
316;DHT22;14128;48.686;9.738;2022-11-15T07:23:03;7.30;1.40
316;DHT22;14128;48.686;9.738;2022-11-15T07:25:31;7.30;1.40
316;DHT22;14128;48.686;9.738;2022-11-15T07:28:00;7.40;1.40
316;DHT22;14128;48.686;9.738;2022-11-15T07:35:37;7.50;1.40
316;DHT22;14128;48.686;9.738;2022-11-15T07:38:04;7.50;1.40
316;DHT22;14128;48.686;9.738;2022-11-15T07:43:08;7.70;1.40
316;DHT22;14128;48.686;9.738;2022-11-15T07:45:40;7.80;1.40
316;DHT22;14128;48.686;9.738;2022-11-15T07:48:07;7.90;1.40
316;DHT22;14128;48.686;9.738;2022-11-15T07:50:34;8.00;1.40
316;DHT22;14128;48.686;9.738;2022-11-15T07:53:00;8.10;1.40
316;DHT22;14128;48.686;9.738;2022-11-15T07:55:28;8.10;1.40
316;DHT22;14128;48.686;9.738;2022-11-15T07:58:00;8.20;1.40
316;DHT22;14128;48.686;9.738;2022-11-15T08:00:29;8.30;1.40
316;DHT22;14128;48.686;9.738;2022-11-15T08:03:02;8.40;1.40
316;DHT22;14128;48.686;9.738;2022-11-15T08:05:28;8.40;1.40
316;DHT22;14128;48.686;9.738;2022-11-15T08:07:55;8.50;1.40
316;DHT22;14128;48.686;9.738;2022-11-15T08:10:22;8.50;1.40
316;DHT22;14128;48.686;9.738;2022-11-15T08:12:57;8.50;1.40
316;DHT22;14128;48.686;9.738;2022-11-15T08:15:23;8.50;1.40
316;DHT22;14128;48.686;9.738;2022-11-15T08:17:55;8.50;1.40
316;DHT22;14128;48.686;9.738;2022-11-15T08:20:22;8.60;1.40
316;DHT22;14128;48.686;9.738;2022-11-15T08:22:49;8.80;1.40
316;DHT22;14128;48.686;9.738;2022-11-15T08:25:16;8.90;1.40
316;DHT22;14128;48.686;9.738;2022-11-15T08:27:43;9.00;1.40
316;DHT22;14128;48.686;9.738;2022-11-15T08:30:11;9.10;1.40
316;DHT22;14128;48.686;9.738;2022-11-15T08:32:37;9.20;1.40
316;DHT22;14128;48.686;9.738;2022-11-15T08:35:07;9.40;1.40
316;DHT22;14128;48.686;9.738;2022-11-15T08:37:34;9.50;1.40
316;DHT22;14128;48.686;9.738;2022-11-15T08:40:01;9.60;1.40
316;DHT22;14128;48.686;9.738;2022-11-15T08:42:28;9.70;1.40
316;DHT22;14128;48.686;9.738;2022-11-15T08:44:55;9.90;1.40
316;DHT22;14128;48.686;9.738;2022-11-15T08:47:21;10.30;1.40
316;DHT22;14128;48.686;9.738;2022-11-15T08:49:49;10.40;1.40
316;DHT22;14128;48.686;9.738;2022-11-15T08:52:17;10.80;1.40
316;DHT22;14128;48.686;9.738;2022-11-15T08:54:44;11.10;1.40
316;DHT22;14128;48.686;9.738;2022-11-15T08:57:11;11.40;1.40
316;DHT22;14128;48.686;9.738;2022-11-15T08:59:38;11.60;1.40
316;DHT22;14128;48.686;9.738;2022-11-15T09:02:05;11.90;1.40
316;DHT22;14128;48.686;9.738;2022-11-15T09:04:32;12.20;1.40
316;DHT22;14128;48.686;9.738;2022-11-15T09:06:59;12.50;1.40
316;DHT22;14128;48.686;9.738;2022-11-15T09:09:27;12.70;1.40
316;DHT22;14128;48.686;9.738;2022-11-15T09:11:54;12.80;1.40
316;DHT22;14128;48.686;9.738;2022-11-15T09:14:21;13.00;1.40
316;DHT22;14128;48.686;9.738;2022-11-15T09:16:48;13.20;1.40
316;DHT22;14128;48.686;9.738;2022-11-15T09:19:14;13.30;1.40
316;DHT22;14128;48.686;9.738;2022-11-15T09:21:41;13.40;1.40
316;DHT22;14128;48.686;9.738;2022-11-15T09:24:08;13.40;1.40
316;DHT22;14128;48.686;9.738;2022-11-15T09:26:36;13.50;1.40
316;DHT22;14128;48.686;9.738;2022-11-15T09:29:03;13.50;1.40
316;DHT22;14128;48.686;9.738;2022-11-15T09:31:30;13.50;1.40
316;DHT22;14128;48.686;9.738;2022-11-15T09:33:57;13.60;1.40
316;DHT22;14128;48.686;9.738;2022-11-15T09:36:23;13.60;1.40
316;DHT22;14128;48.686;9.738;2022-11-15T09:38:50;13.60;1.40
316;DHT22;14128;48.686;9.738;2022-11-15T09:41:40;13.60;1.40
316;DHT22;14128;48.686;9.738;2022-11-15T09:44:21;13.60;1.40
316;DHT22;14128;48.686;9.738;2022-11-15T09:46:57;13.60;1.40
316;DHT22;14128;48.686;9.738;2022-11-15T09:49:26;13.70;1.40
316;DHT22;14128;48.686;9.738;2022-11-15T09:51:56;13.90;1.40
316;DHT22;14128;48.686;9.738;2022-11-15T09:54:29;14.10;1.40
316;DHT22;14128;48.686;9.738;2022-11-15T09:57:04;14.40;1.40
316;DHT22;14128;48.686;9.738;2022-11-15T09:59:55;14.80;1.40
316;DHT22;14128;48.686;9.738;2022-11-15T10:02:42;15.00;1.40
316;DHT22;14128;48.686;9.738;2022-11-15T10:05:15;15.20;1.40
316;DHT22;14128;48.686;9.738;2022-11-15T10:07:48;15.40;1.40
316;DHT22;14128;48.686;9.738;2022-11-15T10:13:12;15.80;1.40
316;DHT22;14128;48.686;9.738;2022-11-15T10:15:42;15.90;1.40
316;DHT22;14128;48.686;9.738;2022-11-15T10:18:18;16.00;1.40
316;DHT22;14128;48.686;9.738;2022-11-15T10:20:48;16.20;1.40
316;DHT22;14128;48.686;9.738;2022-11-15T10:23:18;16.20;1.40
316;DHT22;14128;48.686;9.738;2022-11-15T10:25:45;16.40;1.40
316;DHT22;14128;48.686;9.738;2022-11-15T10:28:16;16.40;1.40
316;DHT22;14128;48.686;9.738;2022-11-15T10:30:45;16.30;1.40
316;DHT22;14128;48.686;9.738;2022-11-15T10:33:25;16.30;1.40
316;DHT22;14128;48.686;9.738;2022-11-15T10:36:21;16.30;1.40
316;DHT22;14128;48.686;9.738;2022-11-15T10:38:57;16.30;1.40
316;DHT22;14128;48.686;9.738;2022-11-15T10:41:33;16.20;1.40
316;DHT22;14128;48.686;9.738;2022-11-15T10:44:12;16.30;1.40
316;DHT22;14128;48.686;9.738;2022-11-15T10:46:40;16.50;1.40
316;DHT22;14128;48.686;9.738;2022-11-15T10:49:14;16.60;1.40
316;DHT22;14128;48.686;9.738;2022-11-15T10:51:43;16.70;1.40
316;DHT22;14128;48.686;9.738;2022-11-15T10:54:12;16.90;1.40
316;DHT22;14128;48.686;9.738;2022-11-15T10:56:41;17.00;1.40
316;DHT22;14128;48.686;9.738;2022-11-15T10:59:17;17.10;1.40
316;DHT22;14128;48.686;9.738;2022-11-15T11:01:47;17.20;1.40
316;DHT22;14128;48.686;9.738;2022-11-15T11:04:14;17.40;1.40
316;DHT22;14128;48.686;9.738;2022-11-15T11:06:48;17.40;1.40
316;DHT22;14128;48.686;9.738;2022-11-15T11:09:30;17.50;1.40
316;DHT22;14128;48.686;9.738;2022-11-15T11:11:58;17.60;1.40
316;DHT22;14128;48.686;9.738;2022-11-15T11:14:28;17.80;1.40
316;DHT22;14128;48.686;9.738;2022-11-15T11:17:02;17.90;1.40
316;DHT22;14128;48.686;9.738;2022-11-15T11:19:50;17.90;1.40
316;DHT22;14128;48.686;9.738;2022-11-15T11:22:25;17.70;1.40
316;DHT22;14128;48.686;9.738;2022-11-15T11:25:03;17.50;1.40
316;DHT22;14128;48.686;9.738;2022-11-15T11:27:40;17.30;1.40
316;DHT22;14128;48.686;9.738;2022-11-15T11:30:14;17.10;1.40
316;DHT22;14128;48.686;9.738;2022-11-15T11:32:51;17.00;1.40
316;DHT22;14128;48.686;9.738;2022-11-15T11:35:25;16.90;1.40
316;DHT22;14128;48.686;9.738;2022-11-15T11:37:59;16.90;1.40
316;DHT22;14128;48.686;9.738;2022-11-15T11:40:32;17.10;1.40
316;DHT22;14128;48.686;9.738;2022-11-15T11:43:10;17.20;1.40
316;DHT22;14128;48.686;9.738;2022-11-15T11:46:03;17.20;1.40
316;DHT22;14128;48.686;9.738;2022-11-15T11:48:41;17.10;1.40
316;DHT22;14128;48.686;9.738;2022-11-15T11:51:14;17.10;1.40
316;DHT22;14128;48.686;9.738;2022-11-15T11:53:47;17.20;1.40
316;DHT22;14128;48.686;9.738;2022-11-15T11:56:23;17.30;1.40
316;DHT22;14128;48.686;9.738;2022-11-15T11:58:52;17.50;1.40
316;DHT22;14128;48.686;9.738;2022-11-15T12:01:23;17.60;1.40
316;DHT22;14128;48.686;9.738;2022-11-15T12:03:55;17.90;1.40
316;DHT22;14128;48.686;9.738;2022-11-15T12:06:29;18.00;1.40
316;DHT22;14128;48.686;9.738;2022-11-15T12:09:01;18.00;1.40
316;DHT22;14128;48.686;9.738;2022-11-15T12:11:32;18.00;1.40
316;DHT22;14128;48.686;9.738;2022-11-15T12:14:08;18.10;1.40
316;DHT22;14128;48.686;9.738;2022-11-15T12:16:41;18.10;1.40
316;DHT22;14128;48.686;9.738;2022-11-15T12:19:08;18.10;1.40
316;DHT22;14128;48.686;9.738;2022-11-15T12:21:41;18.10;1.40
316;DHT22;14128;48.686;9.738;2022-11-15T12:24:15;18.10;1.40
316;DHT22;14128;48.686;9.738;2022-11-15T12:26:48;18.20;1.40
316;DHT22;14128;48.686;9.738;2022-11-15T12:29:20;18.30;1.40
316;DHT22;14128;48.686;9.738;2022-11-15T12:31:53;18.30;1.40
316;DHT22;14128;48.686;9.738;2022-11-15T12:34:44;18.30;1.40
316;DHT22;14128;48.686;9.738;2022-11-15T12:37:34;18.20;1.40
316;DHT22;14128;48.686;9.738;2022-11-15T12:40:20;18.30;1.40
316;DHT22;14128;48.686;9.738;2022-11-15T12:43:03;18.20;1.40
316;DHT22;14128;48.686;9.738;2022-11-15T12:45:31;18.20;1.40
316;DHT22;14128;48.686;9.738;2022-11-15T12:51:05;18.00;1.40
316;DHT22;14128;48.686;9.738;2022-11-15T12:53:33;17.90;1.40
316;DHT22;14128;48.686;9.738;2022-11-15T12:56:21;17.70;1.40
316;DHT22;14128;48.686;9.738;2022-11-15T12:58:54;17.50;1.40
316;DHT22;14128;48.686;9.738;2022-11-15T13:01:55;17.60;1.40
316;DHT22;14128;48.686;9.738;2022-11-15T13:04:25;17.50;1.40
316;DHT22;14128;48.686;9.738;2022-11-15T13:06:55;17.50;1.40
316;DHT22;14128;48.686;9.738;2022-11-15T13:09:51;17.40;1.40
316;DHT22;14128;48.686;9.738;2022-11-15T13:12:54;17.20;1.40
316;DHT22;14128;48.686;9.738;2022-11-15T13:15:33;17.30;1.40
316;DHT22;14128;48.686;9.738;2022-11-15T13:18:27;17.20;1.40
316;DHT22;14128;48.686;9.738;2022-11-15T13:20:54;17.20;1.40
316;DHT22;14128;48.686;9.738;2022-11-15T13:23:23;17.00;1.40
316;DHT22;14128;48.686;9.738;2022-11-15T13:26:03;16.90;1.40
316;DHT22;14128;48.686;9.738;2022-11-15T13:28:36;16.80;1.40
316;DHT22;14128;48.686;9.738;2022-11-15T13:31:25;16.80;1.40
316;DHT22;14128;48.686;9.738;2022-11-15T13:33:53;16.60;1.40
316;DHT22;14128;48.686;9.738;2022-11-15T13:36:23;16.60;1.40
316;DHT22;14128;48.686;9.738;2022-11-15T13:38:57;16.40;1.40
316;DHT22;14128;48.686;9.738;2022-11-15T13:41:26;16.30;1.40
316;DHT22;14128;48.686;9.738;2022-11-15T13:43:54;16.20;1.40
316;DHT22;14128;48.686;9.738;2022-11-15T13:46:22;16.20;1.40
316;DHT22;14128;48.686;9.738;2022-11-15T13:48:52;16.20;1.40
316;DHT22;14128;48.686;9.738;2022-11-15T13:51:33;16.20;1.40
316;DHT22;14128;48.686;9.738;2022-11-15T13:54:12;16.10;1.40
316;DHT22;14128;48.686;9.738;2022-11-15T13:56:44;16.10;1.40
316;DHT22;14128;48.686;9.738;2022-11-15T13:59:20;16.10;1.40
316;DHT22;14128;48.686;9.738;2022-11-15T14:01:51;16.00;1.40
316;DHT22;14128;48.686;9.738;2022-11-15T14:04:20;15.90;1.40
316;DHT22;14128;48.686;9.738;2022-11-15T14:06:50;15.80;1.40
316;DHT22;14128;48.686;9.738;2022-11-15T14:09:38;15.70;1.40
316;DHT22;14128;48.686;9.738;2022-11-15T14:12:26;15.60;1.40
316;DHT22;14128;48.686;9.738;2022-11-15T14:14:55;15.50;1.40
316;DHT22;14128;48.686;9.738;2022-11-15T14:17:34;15.50;1.40
316;DHT22;14128;48.686;9.738;2022-11-15T14:20:01;15.40;1.40
316;DHT22;14128;48.686;9.738;2022-11-15T14:22:29;15.40;1.40
316;DHT22;14128;48.686;9.738;2022-11-15T14:25:18;15.30;1.40
316;DHT22;14128;48.686;9.738;2022-11-15T14:28:12;15.30;1.40
316;DHT22;14128;48.686;9.738;2022-11-15T14:30:40;15.30;1.40
316;DHT22;14128;48.686;9.738;2022-11-15T14:33:29;15.10;1.40
316;DHT22;14128;48.686;9.738;2022-11-15T14:35:59;15.10;1.40
316;DHT22;14128;48.686;9.738;2022-11-15T14:38:28;15.00;1.40
316;DHT22;14128;48.686;9.738;2022-11-15T14:40:56;14.90;1.40
316;DHT22;14128;48.686;9.738;2022-11-15T14:43:24;14.80;1.40
316;DHT22;14128;48.686;9.738;2022-11-15T14:45:51;14.70;1.40
316;DHT22;14128;48.686;9.738;2022-11-15T14:48:17;14.70;1.40
316;DHT22;14128;48.686;9.738;2022-11-15T14:50:44;14.50;1.40
316;DHT22;14128;48.686;9.738;2022-11-15T14:53:12;14.40;1.40
316;DHT22;14128;48.686;9.738;2022-11-15T14:55:41;14.40;1.40
316;DHT22;14128;48.686;9.738;2022-11-15T14:58:10;14.30;1.40
316;DHT22;14128;48.686;9.738;2022-11-15T15:00:38;14.20;1.40
316;DHT22;14128;48.686;9.738;2022-11-15T15:03:06;14.00;1.40
316;DHT22;14128;48.686;9.738;2022-11-15T15:05:34;13.90;1.40
316;DHT22;14128;48.686;9.738;2022-11-15T15:08:02;13.80;1.40
316;DHT22;14128;48.686;9.738;2022-11-15T15:10:32;13.70;1.40
316;DHT22;14128;48.686;9.738;2022-11-15T15:12:59;13.70;1.40
316;DHT22;14128;48.686;9.738;2022-11-15T15:15:32;13.50;1.40
316;DHT22;14128;48.686;9.738;2022-11-15T15:17:59;13.40;1.40
316;DHT22;14128;48.686;9.738;2022-11-15T15:20:26;13.30;1.40
316;DHT22;14128;48.686;9.738;2022-11-15T15:22:54;13.30;1.40
316;DHT22;14128;48.686;9.738;2022-11-15T15:25:23;13.20;1.40
316;DHT22;14128;48.686;9.738;2022-11-15T15:27:52;13.10;1.40
316;DHT22;14128;48.686;9.738;2022-11-15T15:30:19;13.00;1.40
316;DHT22;14128;48.686;9.738;2022-11-15T15:32:47;12.90;1.40
316;DHT22;14128;48.686;9.738;2022-11-15T15:35:15;12.90;1.40
316;DHT22;14128;48.686;9.738;2022-11-15T15:37:44;12.90;1.40
316;DHT22;14128;48.686;9.738;2022-11-15T15:40:15;12.80;1.40
316;DHT22;14128;48.686;9.738;2022-11-15T15:42:43;12.80;1.40
316;DHT22;14128;48.686;9.738;2022-11-15T15:45:10;12.80;1.40
316;DHT22;14128;48.686;9.738;2022-11-15T15:47:37;12.70;1.40
316;DHT22;14128;48.686;9.738;2022-11-15T15:50:14;12.70;1.40
316;DHT22;14128;48.686;9.738;2022-11-15T15:52:43;12.60;1.40
316;DHT22;14128;48.686;9.738;2022-11-15T15:55:10;12.50;1.40
316;DHT22;14128;48.686;9.738;2022-11-15T15:57:37;12.50;1.40
316;DHT22;14128;48.686;9.738;2022-11-15T16:00:04;12.30;1.40
316;DHT22;14128;48.686;9.738;2022-11-15T16:02:32;12.30;1.40
316;DHT22;14128;48.686;9.738;2022-11-15T16:04:58;12.30;1.40
316;DHT22;14128;48.686;9.738;2022-11-15T16:07:26;12.20;1.40
316;DHT22;14128;48.686;9.738;2022-11-15T16:09:55;12.10;1.40
316;DHT22;14128;48.686;9.738;2022-11-15T16:12:28;12.10;1.40
316;DHT22;14128;48.686;9.738;2022-11-15T16:14:55;12.10;1.40
316;DHT22;14128;48.686;9.738;2022-11-15T16:17:24;12.00;1.40
316;DHT22;14128;48.686;9.738;2022-11-15T16:19:51;12.00;1.40
316;DHT22;14128;48.686;9.738;2022-11-15T16:22:18;12.00;1.40
316;DHT22;14128;48.686;9.738;2022-11-15T16:24:46;11.90;1.40
316;DHT22;14128;48.686;9.738;2022-11-15T16:27:14;11.80;1.40
316;DHT22;14128;48.686;9.738;2022-11-15T16:29:41;11.80;1.40
316;DHT22;14128;48.686;9.738;2022-11-15T16:32:08;11.80;1.40
316;DHT22;14128;48.686;9.738;2022-11-15T16:34:35;11.80;1.40
316;DHT22;14128;48.686;9.738;2022-11-15T16:37:02;11.80;1.40
316;DHT22;14128;48.686;9.738;2022-11-15T16:39:29;11.70;1.40
316;DHT22;14128;48.686;9.738;2022-11-15T16:41:58;11.70;1.40
316;DHT22;14128;48.686;9.738;2022-11-15T16:44:25;11.60;1.40
316;DHT22;14128;48.686;9.738;2022-11-15T16:46:52;11.70;1.40
316;DHT22;14128;48.686;9.738;2022-11-15T16:49:19;11.60;1.40
316;DHT22;14128;48.686;9.738;2022-11-15T16:51:48;11.60;1.40
316;DHT22;14128;48.686;9.738;2022-11-15T16:54:16;11.60;1.40
316;DHT22;14128;48.686;9.738;2022-11-15T16:56:43;11.60;1.40
316;DHT22;14128;48.686;9.738;2022-11-15T16:59:15;11.60;1.40
316;DHT22;14128;48.686;9.738;2022-11-15T17:01:43;11.60;1.40
316;DHT22;14128;48.686;9.738;2022-11-15T17:04:17;11.50;1.40